createdAt,value
2022-11-13T12:24:34.666Z,18.66
2022-11-13T12:25:34.558Z,19.28
2022-11-13T12:26:34.544Z,19.68
2022-11-13T12:27:34.514Z,20.33
2022-11-13T12:28:38.402Z,20.94
2022-11-13T12:29:34.476Z,20.82
2022-11-13T12:30:34.467Z,20.99
2022-11-13T12:31:34.437Z,20.76
2022-11-13T12:32:34.417Z,20.62
2022-11-13T12:33:34.403Z,21.06
2022-11-13T12:34:34.392Z,21.35
2022-11-13T12:35:34.375Z,21.91
2022-11-13T12:36:34.345Z,21.96
2022-11-13T12:37:34.330Z,22.20
2022-11-13T12:38:34.305Z,22.75
2022-11-13T12:39:34.300Z,23.05
2022-11-13T12:40:34.369Z,22.49
2022-11-13T12:41:34.254Z,22.21
2022-11-13T12:42:34.236Z,22.86
2022-11-13T12:43:34.228Z,23.04
2022-11-13T12:44:34.203Z,23.15
2022-11-13T12:45:34.198Z,23.48
2022-11-13T12:46:34.173Z,23.76
2022-11-13T12:47:34.157Z,23.98
2022-11-13T12:48:34.144Z,23.91
2022-11-13T12:49:34.128Z,23.91
2022-11-13T12:50:34.122Z,24.32
2022-11-13T12:51:34.110Z,24.08
2022-11-13T12:52:34.076Z,23.91
2022-11-13T12:53:34.058Z,24.03
2022-11-13T12:54:34.041Z,24.22
2022-11-13T12:55:34.028Z,24.50
2022-11-13T12:56:34.091Z,24.58
2022-11-13T12:57:33.988Z,24.12
2022-11-13T12:58:33.976Z,23.84
2022-11-13T12:59:33.953Z,23.87
2022-11-13T13:00:33.956Z,24.18
2022-11-13T13:01:33.987Z,24.37
2022-11-13T13:02:33.917Z,24.52
2022-11-13T13:03:33.901Z,24.47
2022-11-13T13:04:33.875Z,24.53
2022-11-13T13:05:33.885Z,24.39
2022-11-13T13:06:33.843Z,24.39
2022-11-13T13:07:33.830Z,23.93
2022-11-13T13:08:33.813Z,23.90
2022-11-13T13:09:33.799Z,23.60
2022-11-13T13:10:33.809Z,23.31
2022-11-13T13:11:33.778Z,23.02
2022-11-13T13:12:33.827Z,22.83
2022-11-13T13:13:33.753Z,22.92
2022-11-13T13:14:33.731Z,22.91
2022-11-13T13:15:33.710Z,22.61
2022-11-13T13:16:33.714Z,22.25
2022-11-13T13:17:33.677Z,22.14
2022-11-13T13:18:33.685Z,21.84
2022-11-13T13:19:33.664Z,21.74
2022-11-13T13:20:33.631Z,21.92
2022-11-13T13:21:33.630Z,22.02
2022-11-13T13:22:33.606Z,21.96
2022-11-13T13:23:33.595Z,21.99
2022-11-13T13:24:33.577Z,22.21
2022-11-13T13:25:33.566Z,22.31
2022-11-13T13:26:33.564Z,22.21
2022-11-13T13:27:33.565Z,22.14
2022-11-13T13:28:33.587Z,22.30
2022-11-13T13:29:33.512Z,22.79
2022-11-13T13:30:33.489Z,23.00
2022-11-13T13:31:33.485Z,23.10
2022-11-13T13:32:33.468Z,23.38
2022-11-13T13:33:33.442Z,23.65
2022-11-13T13:34:35.257Z,23.79
2022-11-13T13:35:33.428Z,24.03
2022-11-13T13:36:33.422Z,24.30
2022-11-13T13:37:33.392Z,23.69
2022-11-13T13:38:33.377Z,23.05
